Time;durP1;ratioP1;P1;durP2;ratioP2;P2;SDS_P1;SDS_P2;PMS_P1;PMS_P2;Temp;Humidity;BMP_temperature;BMP_pressure;BME280_temperature;BME280_humidity;BME280_pressure;Samples;Min_cycle;Max_cycle;Signal;HPM_P1;HPM_P2
2022/11/14 00:00:36;;;;;;;15.68;8.93;;;;;;;;;;5035318;28;20060;-79
2022/11/14 00:03:04;;;;;;;14.80;8.40;;;;;;;;;;5034288;28;20062;-80
2022/11/14 00:05:29;;;;;;;18.48;8.27;;;;;;;;;;5018351;28;20029;-78
2022/11/14 00:07:54;;;;;;;20.05;9.73;;;;;;;;;;5035362;28;20056;-79
2022/11/14 00:10:20;;;;;;;18.38;9.82;;;;;;;;;;5018634;28;20033;-80
2022/11/14 00:12:46;;;;;;;16.33;9.30;;;;;;;;;;5018650;28;20163;-80
2022/11/14 00:15:12;;;;;;;16.20;7.72;;;;;;;;;;4996591;28;20022;-80
2022/11/14 00:17:37;;;;;;;15.95;8.40;;;;;;;;;;5015230;28;20032;-79
2022/11/14 00:20:05;;;;;;;16.80;8.90;;;;;;;;;;5016783;28;20112;-79
2022/11/14 00:22:30;;;;;;;14.20;8.10;;;;;;;;;;5016692;28;20458;-80
2022/11/14 00:24:55;;;;;;;17.17;8.45;;;;;;;;;;5017945;28;20030;-78
2022/11/14 00:27:21;;;;;;;20.90;9.65;;;;;;;;;;5034591;28;20135;-80
2022/11/14 00:29:46;;;;;;;15.27;8.88;;;;;;;;;;5038532;28;20025;-79
2022/11/14 00:32:17;;;;;;;20.42;9.57;;;;;;;;;;5041780;28;20069;-79
2022/11/14 00:34:42;;;;;;;16.55;9.20;;;;;;;;;;5040896;28;20339;-79
2022/11/14 00:37:07;;;;;;;17.65;9.25;;;;;;;;;;5040119;28;20052;-81
2022/11/14 00:39:33;;;;;;;12.25;7.00;;;;;;;;;;5039300;28;20025;-78
2022/11/14 00:41:58;;;;;;;16.45;7.85;;;;;;;;;;5020870;28;20045;-80
2022/11/14 00:44:23;;;;;;;13.63;7.15;;;;;;;;;;5019736;28;20551;-80
2022/11/14 00:46:49;;;;;;;13.52;6.97;;;;;;;;;;5018705;28;20487;-78
2022/11/14 00:49:14;;;;;;;18.08;9.07;;;;;;;;;;5017670;28;20032;-81
2022/11/14 00:51:39;;;;;;;14.80;8.43;;;;;;;;;;5002704;28;20454;-79
2022/11/14 00:54:05;;;;;;;17.42;8.65;;;;;;;;;;5018264;28;20116;-79
2022/11/14 00:56:30;;;;;;;15.55;9.35;;;;;;;;;;5019173;28;20040;-78
2022/11/14 00:58:58;;;;;;;19.55;9.60;;;;;;;;;;5020789;28;20454;-80
2022/11/14 01:01:23;;;;;;;17.63;8.65;;;;;;;;;;5038850;28;20029;-79
2022/11/14 01:03:49;;;;;;;16.45;9.13;;;;;;;;;;5039689;28;20156;-79
2022/11/14 01:06:16;;;;;;;15.73;7.88;;;;;;;;;;5037893;28;20021;-79
2022/11/14 01:08:42;;;;;;;14.82;7.45;;;;;;;;;;5020436;28;20044;-79
2022/11/14 01:11:10;;;;;;;14.95;8.25;;;;;;;;;;5038419;28;20026;-78
2022/11/14 01:13:36;;;;;;;14.80;7.93;;;;;;;;;;5036076;28;20022;-80
2022/11/14 01:16:01;;;;;;;15.93;8.40;;;;;;;;;;5005132;28;20087;-80
2022/11/14 01:18:27;;;;;;;17.15;8.95;;;;;;;;;;5018351;28;20105;-80
2022/11/14 01:20:52;;;;;;;17.63;9.35;;;;;;;;;;5002511;28;20032;-79
2022/11/14 01:23:17;;;;;;;14.13;7.88;;;;;;;;;;5005031;28;20022;-81
2022/11/14 01:25:43;;;;;;;16.48;9.63;;;;;;;;;;5019006;28;20479;-79
2022/11/14 01:28:12;;;;;;;18.88;9.32;;;;;;;;;;5020673;28;20037;-80
2022/11/14 01:30:38;;;;;;;14.90;7.43;;;;;;;;;;5033677;28;20365;-79
2022/11/14 01:33:04;;;;;;;13.07;7.13;;;;;;;;;;5038869;28;20025;-79
2022/11/14 01:35:31;;;;;;;15.80;7.97;;;;;;;;;;5021254;28;20029;-81
2022/11/14 01:37:56;;;;;;;16.08;8.52;;;;;;;;;;5037401;28;20377;-80
2022/11/14 01:40:22;;;;;;;17.27;8.82;;;;;;;;;;5039184;28;20068;-81
2022/11/14 01:43:15;;;;;;;12.05;7.78;;;;;;;;;;5038932;28;20040;-80
2022/11/14 01:45:46;;;;;;;16.65;7.50;;;;;;;;;;5017679;28;20403;-80
2022/11/14 01:48:20;;;;;;;13.43;6.60;;;;;;;;;;5020839;28;20022;-80
2022/11/14 01:50:47;;;;;;;;;;;;;;;;;;5021051;28;20040;-81
2022/11/14 01:53:12;;;;;;;14.23;7.07;;;;;;;;;;5020236;28;20294;-80
2022/11/14 01:55:37;;;;;;;16.02;8.05;;;;;;;;;;5021227;28;20094;-80
2022/11/14 01:58:03;;;;;;;14.23;7.50;;;;;;;;;;5024331;28;20044;-80
2022/11/14 02:00:28;;;;;;;17.38;8.13;;;;;;;;;;5039964;28;20513;-80
2022/11/14 02:02:54;;;;;;;14.15;6.30;;;;;;;;;;5021436;28;20028;-80
2022/11/14 02:05:20;;;;;;;13.98;7.80;;;;;;;;;;5040042;28;20447;-79
2022/11/14 02:07:45;;;;;;;17.30;8.95;;;;;;;;;;5020054;28;20064;-81
2022/11/14 02:10:17;;;;;;;13.52;7.25;;;;;;;;;;5020771;28;20087;-79
2022/11/14 02:12:44;;;;;;;14.48;7.72;;;;;;;;;;5036654;28;20025;-79
2022/11/14 02:15:10;;;;;;;18.23;8.55;;;;;;;;;;5039676;28;20034;-80
2022/11/14 02:17:35;;;;;;;14.52;8.07;;;;;;;;;;5040910;28;20021;-79
2022/11/14 02:20:10;;;;;;;16.38;9.30;;;;;;;;;;5024036;28;20029;-80
2022/11/14 02:22:40;;;;;;;20.45;9.43;;;;;;;;;;5024180;28;20082;-80
2022/11/14 02:25:07;;;;;;;14.65;8.30;;;;;;;;;;5023529;28;20029;-80
2022/11/14 02:27:33;;;;;;;16.52;8.52;;;;;;;;;;5042241;28;20103;-79
2022/11/14 02:30:11;;;;;;;14.40;6.88;;;;;;;;;;5022370;28;20059;-79
2022/11/14 02:32:36;;;;;;;14.75;8.57;;;;;;;;;;5023316;28;20021;-80
2022/11/14 02:35:01;;;;;;;13.38;7.20;;;;;;;;;;5023075;28;20028;-80
2022/11/14 02:37:27;;;;;;;14.25;7.50;;;;;;;;;;5040644;28;20391;-79
2022/11/14 02:39:52;;;;;;;13.18;7.57;;;;;;;;;;5037083;28;20025;-79
2022/11/14 02:42:17;;;;;;;15.02;8.18;;;;;;;;;;5038989;28;20028;-79
2022/11/14 02:44:43;;;;;;;14.85;8.15;;;;;;;;;;5026976;28;20491;-80
2022/11/14 02:47:08;;;;;;;12.18;6.78;;;;;;;;;;5021839;28;20018;-80
2022/11/14 02:49:33;;;;;;;16.77;7.88;;;;;;;;;;5020439;28;20034;-79
2022/11/14 02:51:58;;;;;;;14.18;7.22;;;;;;;;;;5005788;28;20068;-78
2022/11/14 02:54:24;;;;;;;17.88;8.45;;;;;;;;;;5007189;28;20026;-80
2022/11/14 02:56:49;;;;;;;15.77;7.18;;;;;;;;;;5022712;28;20069;-80
2022/11/14 02:59:14;;;;;;;11.00;5.97;;;;;;;;;;5014930;28;20041;-80
2022/11/14 03:01:40;;;;;;;12.05;5.53;;;;;;;;;;5039809;28;20028;-79
2022/11/14 03:04:05;;;;;;;12.93;8.27;;;;;;;;;;5036627;28;20026;-80
2022/11/14 03:06:30;;;;;;;14.18;7.22;;;;;;;;;;5036639;28;20029;-80
2022/11/14 03:08:56;;;;;;;14.35;8.32;;;;;;;;;;5036813;28;20060;-80
2022/11/14 03:11:21;;;;;;;15.18;7.97;;;;;;;;;;5037925;28;20045;-80
2022/11/14 03:13:46;;;;;;;13.93;8.10;;;;;;;;;;5017357;28;20117;-80
2022/11/14 03:16:13;;;;;;;14.45;8.18;;;;;;;;;;5014660;28;20018;-80
2022/11/14 03:18:38;;;;;;;16.55;7.38;;;;;;;;;;4998513;28;20026;-79
2022/11/14 03:21:06;;;;;;;13.52;7.55;;;;;;;;;;5017480;28;20580;-80
2022/11/14 03:23:32;;;;;;;14.80;7.93;;;;;;;;;;5016779;28;20026;-78
2022/11/14 03:26:01;;;;;;;15.02;8.10;;;;;;;;;;4997404;28;20336;-79
2022/11/14 03:28:27;;;;;;;13.18;7.47;;;;;;;;;;5015833;28;20113;-80
2022/11/14 03:30:52;;;;;;;13.70;7.22;;;;;;;;;;5017302;28;20087;-79
2022/11/14 03:33:17;;;;;;;15.48;8.27;;;;;;;;;;5035753;28;20026;-79
2022/11/14 03:35:43;;;;;;;13.35;7.22;;;;;;;;;;5036511;28;20508;-80
2022/11/14 03:38:08;;;;;;;14.32;8.18;;;;;;;;;;5034585;28;20034;-79
2022/11/14 03:40:33;;;;;;;12.57;6.18;;;;;;;;;;5038005;28;20064;-80
2022/11/14 03:42:59;;;;;;;15.93;8.05;;;;;;;;;;5039084;28;20038;-79
2022/11/14 03:45:24;;;;;;;13.38;7.38;;;;;;;;;;5029207;28;20053;-80
2022/11/14 03:47:49;;;;;;;13.68;7.47;;;;;;;;;;5019088;28;20029;-81
2022/11/14 03:50:15;;;;;;;13.25;7.60;;;;;;;;;;5019691;28;20112;-80
2022/11/14 03:52:40;;;;;;;14.63;7.88;;;;;;;;;;5017431;28;20030;-81
2022/11/14 03:55:06;;;;;;;15.60;8.07;;;;;;;;;;4999318;28;20440;-80
2022/11/14 03:57:31;;;;;;;14.40;8.35;;;;;;;;;;4998700;28;20029;-79
2022/11/14 03:59:56;;;;;;;11.95;6.68;;;;;;;;;;5006590;28;20533;-79
2022/11/14 04:02:21;;;;;;;15.95;8.27;;;;;;;;;;5037575;28;20041;-79
2022/11/14 04:04:47;;;;;;;12.25;7.70;;;;;;;;;;5036190;28;20037;-79
2022/11/14 04:07:12;;;;;;;14.00;7.95;;;;;;;;;;5036827;28;20096;-79
2022/11/14 04:09:37;;;;;;;15.98;8.20;;;;;;;;;;5018081;28;20449;-79
2022/11/14 04:12:02;;;;;;;15.23;8.05;;;;;;;;;;5035607;28;20025;-79
2022/11/14 04:14:28;;;;;;;11.98;7.00;;;;;;;;;;5035386;28;20047;-80
2022/11/14 04:16:53;;;;;;;15.98;8.23;;;;;;;;;;5035654;28;20140;-80
2022/11/14 04:19:18;;;;;;;10.73;6.25;;;;;;;;;;5036800;28;20099;-80
2022/11/14 04:21:43;;;;;;;14.05;7.50;;;;;;;;;;5034463;28;20052;-79
2022/11/14 04:24:09;;;;;;;15.18;8.38;;;;;;;;;;5036282;28;20035;-79
2022/11/14 04:26:34;;;;;;;13.77;7.10;;;;;;;;;;5036875;28;20044;-80
2022/11/14 04:28:59;;;;;;;13.77;7.95;;;;;;;;;;5032618;28;20029;-80
2022/11/14 04:31:25;;;;;;;16.58;7.93;;;;;;;;;;4999100;28;20100;-79
2022/11/14 04:33:50;;;;;;;16.42;8.55;;;;;;;;;;5016234;28;20033;-79
2022/11/14 04:36:15;;;;;;;14.73;8.30;;;;;;;;;;4998312;28;20426;-80
2022/11/14 04:38:40;;;;;;;14.32;7.78;;;;;;;;;;5016821;28;20463;-80
2022/11/14 04:41:06;;;;;;;17.38;8.60;;;;;;;;;;5017095;28;20080;-80
2022/11/14 04:43:31;;;;;;;14.88;8.55;;;;;;;;;;5017532;28;20042;-80
2022/11/14 04:45:56;;;;;;;14.73;7.82;;;;;;;;;;5018459;28;20033;-79
2022/11/14 04:48:22;;;;;;;13.85;7.85;;;;;;;;;;5019816;28;20026;-80
2022/11/14 04:50:47;;;;;;;16.10;8.13;;;;;;;;;;5016930;28;20125;-79
2022/11/14 04:53:12;;;;;;;13.85;7.30;;;;;;;;;;4999134;28;20044;-80
2022/11/14 04:55:37;;;;;;;17.27;8.82;;;;;;;;;;5018131;28;20217;-80
2022/11/14 04:58:03;;;;;;;15.52;7.85;;;;;;;;;;5019412;28;20033;-80
2022/11/14 05:00:28;;;;;;;18.45;9.20;;;;;;;;;;5035074;28;20450;-81
2022/11/14 05:02:53;;;;;;;12.73;7.65;;;;;;;;;;5018669;28;20032;-80
2022/11/14 05:05:18;;;;;;;13.48;8.02;;;;;;;;;;5038362;28;20040;-80
2022/11/14 05:07:44;;;;;;;17.08;7.75;;;;;;;;;;5034235;28;20101;-80
2022/11/14 05:10:09;;;;;;;19.75;8.38;;;;;;;;;;5036304;28;20029;-80
2022/11/14 05:12:34;;;;;;;15.30;8.27;;;;;;;;;;5017525;28;20060;-80
2022/11/14 05:15:00;;;;;;;11.70;7.15;;;;;;;;;;5033957;28;20093;-80
2022/11/14 05:17:26;;;;;;;16.50;8.68;;;;;;;;;;5039970;28;20034;-79
2022/11/14 05:19:51;;;;;;;14.63;7.43;;;;;;;;;;5037396;28;20033;-80
2022/11/14 05:22:17;;;;;;;14.65;7.53;;;;;;;;;;5036787;28;20044;-79
2022/11/14 05:24:42;;;;;;;14.80;8.57;;;;;;;;;;5039452;28;20037;-79
2022/11/14 05:27:07;;;;;;;13.60;7.63;;;;;;;;;;5037446;28;20022;-80
2022/11/14 05:29:32;;;;;;;14.90;8.45;;;;;;;;;;5037886;28;20138;-80
2022/11/14 05:31:59;;;;;;;15.05;7.72;;;;;;;;;;5006014;28;20132;-80
2022/11/14 05:34:24;;;;;;;17.30;8.95;;;;;;;;;;5017420;28;20049;-80
2022/11/14 05:36:50;;;;;;;19.70;8.25;;;;;;;;;;5016616;28;20061;-80
2022/11/14 05:39:15;;;;;;;16.10;8.52;;;;;;;;;;5020800;28;20501;-79
2022/11/14 05:41:40;;;;;;;16.65;7.93;;;;;;;;;;5018136;28;20052;-78
2022/11/14 05:44:06;;;;;;;14.50;8.15;;;;;;;;;;5035673;28;20079;-80
2022/11/14 05:46:31;;;;;;;17.25;8.25;;;;;;;;;;5038035;28;20517;-80
2022/11/14 05:48:56;;;;;;;11.85;6.93;;;;;;;;;;5038588;28;20340;-80
2022/11/14 05:51:22;;;;;;;15.93;8.30;;;;;;;;;;5028063;28;20022;-79
2022/11/14 05:53:47;;;;;;;13.25;6.57;;;;;;;;;;5020039;28;20081;-80
2022/11/14 05:56:12;;;;;;;18.75;9.05;;;;;;;;;;5020693;28;20056;-80
2022/11/14 05:58:38;;;;;;;12.90;7.53;;;;;;;;;;5023458;28;20030;-79
2022/11/14 06:01:14;;;;;;;16.27;9.07;;;;;;;;;;5022611;28;20036;-81
2022/11/14 06:03:42;;;;;;;11.90;5.55;;;;;;;;;;5019875;28;20069;-79
2022/11/14 06:06:10;;;;;;;15.45;8.82;;;;;;;;;;5025495;28;20068;-79
2022/11/14 06:08:36;;;;;;;19.88;9.50;;;;;;;;;;5038470;28;20121;-79
2022/11/14 06:11:10;;;;;;;17.48;9.30;;;;;;;;;;5041834;28;20065;-80
2022/11/14 06:13:35;;;;;;;10.93;5.47;;;;;;;;;;5021012;28;20036;-80
2022/11/14 06:16:03;;;;;;;19.10;9.68;;;;;;;;;;5027817;28;20037;-80
2022/11/14 06:18:29;;;;;;;19.40;9.85;;;;;;;;;;5052010;28;20048;-79
2022/11/14 06:20:59;;;;;;;18.42;9.68;;;;;;;;;;5042122;28;20093;-79
2022/11/14 06:23:25;;;;;;;17.02;9.35;;;;;;;;;;5032267;28;20040;-80
2022/11/14 06:25:50;;;;;;;18.70;8.82;;;;;;;;;;5014323;28;20038;-80
2022/11/14 06:28:15;;;;;;;15.93;8.38;;;;;;;;;;5031304;28;20054;-80
2022/11/14 06:30:40;;;;;;;16.83;8.52;;;;;;;;;;5030171;28;20042;-80
2022/11/14 06:33:06;;;;;;;17.23;9.50;;;;;;;;;;5030690;28;20045;-80
2022/11/14 06:35:32;;;;;;;23.73;9.45;;;;;;;;;;5039898;28;20072;-80
2022/11/14 06:37:58;;;;;;;21.02;10.32;;;;;;;;;;5035833;28;20021;-80
2022/11/14 06:40:24;;;;;;;17.02;9.35;;;;;;;;;;5036869;28;20029;-80
2022/11/14 06:42:49;;;;;;;22.15;10.77;;;;;;;;;;5049996;28;20127;-80
2022/11/14 06:45:14;;;;;;;12.85;6.70;;;;;;;;;;5035159;28;20113;-79
2022/11/14 06:47:39;;;;;;;19.38;10.48;;;;;;;;;;5052896;28;20009;-81
2022/11/14 06:50:05;;;;;;;16.00;10.52;;;;;;;;;;5052462;28;20022;-80
2022/11/14 06:52:30;;;;;;;19.35;10.60;;;;;;;;;;5052257;28;20052;-79
2022/11/14 06:54:56;;;;;;;17.92;10.10;;;;;;;;;;5052839;28;20067;-79
2022/11/14 06:57:21;;;;;;;19.20;9.45;;;;;;;;;;5050994;28;20029;-80
2022/11/14 06:59:47;;;;;;;15.05;8.23;;;;;;;;;;5032422;28;20056;-80
2022/11/14 07:02:12;;;;;;;18.83;10.80;;;;;;;;;;5052415;28;20009;-80
2022/11/14 07:04:38;;;;;;;19.65;9.80;;;;;;;;;;5054019;28;20574;-79
2022/11/14 07:07:03;;;;;;;18.65;9.57;;;;;;;;;;5051043;28;20024;-80
2022/11/14 07:09:28;;;;;;;22.45;10.90;;;;;;;;;;5048016;28;20092;-80
2022/11/14 07:11:54;;;;;;;19.05;10.30;;;;;;;;;;5044955;28;20060;-79
2022/11/14 07:14:19;;;;;;;20.88;10.13;;;;;;;;;;5040330;28;20093;-80
2022/11/14 07:16:44;;;;;;;22.40;10.45;;;;;;;;;;5000753;28;20034;-80
2022/11/14 07:19:09;;;;;;;20.08;10.63;;;;;;;;;;5019902;28;20056;-80
2022/11/14 07:21:35;;;;;;;21.63;10.45;;;;;;;;;;5002804;28;20079;-79
2022/11/14 07:24:01;;;;;;;20.30;10.80;;;;;;;;;;5001859;28;20541;-79
2022/11/14 07:26:26;;;;;;;19.80;10.85;;;;;;;;;;5019404;28;20022;-79
2022/11/14 07:28:52;;;;;;;22.08;11.43;;;;;;;;;;5020951;28;20029;-79
2022/11/14 07:31:18;;;;;;;21.17;10.55;;;;;;;;;;5034344;28;20036;-79
2022/11/14 07:33:45;;;;;;;18.73;10.60;;;;;;;;;;5039777;28;20025;-79
2022/11/14 07:36:12;;;;;;;20.88;11.18;;;;;;;;;;5022006;28;20029;-80
2022/11/14 07:38:38;;;;;;;22.90;11.20;;;;;;;;;;5043781;28;20040;-81
2022/11/14 07:41:09;;;;;;;20.77;10.95;;;;;;;;;;5042161;28;20095;-80
2022/11/14 07:43:35;;;;;;;21.20;11.52;;;;;;;;;;5037966;28;20104;-80
2022/11/14 07:46:01;;;;;;;20.80;10.77;;;;;;;;;;5038322;28;20061;-79
2022/11/14 07:48:28;;;;;;;21.83;10.90;;;;;;;;;;5038333;28;20026;-80
2022/11/14 07:50:57;;;;;;;20.38;10.20;;;;;;;;;;5035153;28;20479;-80
2022/11/14 07:53:23;;;;;;;19.77;10.50;;;;;;;;;;5039988;28;20784;-81
2022/11/14 07:55:48;;;;;;;22.02;11.02;;;;;;;;;;5025061;28;20052;-80
2022/11/14 07:58:14;;;;;;;24.00;10.98;;;;;;;;;;5042664;28;20132;-81
2022/11/14 08:00:40;;;;;;;20.10;9.93;;;;;;;;;;5030158;28;20569;-81
2022/11/14 08:03:07;;;;;;;20.88;11.88;;;;;;;;;;5014649;28;20025;-79
2022/11/14 08:05:32;;;;;;;17.60;10.05;;;;;;;;;;5051253;28;20081;-81
2022/11/14 08:07:57;;;;;;;19.80;10.52;;;;;;;;;;5044556;28;20052;-82
2022/11/14 08:10:22;;;;;;;21.67;10.80;;;;;;;;;;5048343;28;20063;-79
2022/11/14 08:12:57;;;;;;;17.65;9.93;;;;;;;;;;5044980;28;20049;-79
2022/11/14 08:15:22;;;;;;;20.48;11.60;;;;;;;;;;5039813;28;20060;-81
2022/11/14 08:17:47;;;;;;;17.85;10.20;;;;;;;;;;5040283;28;20030;-80
2022/11/14 08:20:12;;;;;;;20.27;11.43;;;;;;;;;;5040049;28;20486;-80
2022/11/14 08:22:38;;;;;;;22.15;10.68;;;;;;;;;;5040023;28;20021;-79
2022/11/14 08:25:03;;;;;;;25.48;11.18;;;;;;;;;;5039299;28;20022;-81
2022/11/14 08:27:29;;;;;;;23.70;10.90;;;;;;;;;;5035517;28;20117;-79
2022/11/14 08:29:54;;;;;;;18.42;10.60;;;;;;;;;;5036626;28;20059;-80
2022/11/14 08:32:20;;;;;;;19.08;9.77;;;;;;;;;;5036654;28;20486;-81
2022/11/14 08:34:45;;;;;;;19.25;10.60;;;;;;;;;;5038659;28;20025;-80
2022/11/14 08:37:10;;;;;;;18.80;10.75;;;;;;;;;;5037056;28;20219;-80
2022/11/14 08:39:35;;;;;;;18.50;10.48;;;;;;;;;;5023140;28;20435;-79
2022/11/14 08:42:01;;;;;;;21.40;11.43;;;;;;;;;;5039737;28;20055;-79
2022/11/14 08:44:26;;;;;;;19.63;10.70;;;;;;;;;;5024981;28;20025;-80
2022/11/14 08:46:51;;;;;;;18.83;10.38;;;;;;;;;;5020306;28;20017;-81
2022/11/14 08:49:17;;;;;;;19.15;10.93;;;;;;;;;;5027441;28;20089;-80
2022/11/14 08:51:42;;;;;;;20.75;10.55;;;;;;;;;;5022197;28;20056;-80
2022/11/14 08:54:07;;;;;;;19.70;11.20;;;;;;;;;;5019159;28;20037;-79
2022/11/14 08:56:33;;;;;;;20.10;10.18;;;;;;;;;;5004912;28;20109;-79
2022/11/14 08:58:58;;;;;;;16.10;8.50;;;;;;;;;;5022965;28;20029;-80
2022/11/14 09:01:24;;;;;;;19.88;10.75;;;;;;;;;;5020338;28;20101;-79
2022/11/14 09:03:49;;;;;;;19.90;10.75;;;;;;;;;;5029748;28;20410;-79
2022/11/14 09:06:15;;;;;;;18.80;9.63;;;;;;;;;;5022954;28;20021;-80
2022/11/14 09:08:40;;;;;;;17.50;8.73;;;;;;;;;;5021481;28;20032;-79
2022/11/14 09:11:05;;;;;;;18.48;9.88;;;;;;;;;;5020353;28;20044;-79
2022/11/14 09:13:32;;;;;;;17.38;10.23;;;;;;;;;;5018473;28;20033;-79
2022/11/14 09:15:58;;;;;;;22.42;10.75;;;;;;;;;;5040325;28;20022;-80
2022/11/14 09:18:23;;;;;;;20.17;9.70;;;;;;;;;;5031620;28;20121;-78
2022/11/14 09:20:48;;;;;;;17.58;9.95;;;;;;;;;;4998474;28;20082;-78
2022/11/14 09:23:13;;;;;;;18.48;10.05;;;;;;;;;;5019226;28;20030;-80
2022/11/14 09:25:39;;;;;;;17.95;9.00;;;;;;;;;;5014998;28;20038;-78
2022/11/14 09:28:05;;;;;;;14.60;7.20;;;;;;;;;;5017136;28;20049;-80
2022/11/14 09:30:31;;;;;;;20.92;10.02;;;;;;;;;;5015787;28;20117;-81
2022/11/14 09:33:01;;;;;;;17.38;9.52;;;;;;;;;;5007407;28;20056;-79
2022/11/14 09:35:27;;;;;;;16.38;8.80;;;;;;;;;;5037730;28;20033;-79
2022/11/14 09:38:04;;;;;;;15.35;8.13;;;;;;;;;;5018765;28;20493;-78
2022/11/14 09:40:57;;;;;;;22.42;11.02;;;;;;;;;;5039173;28;20040;-79
2022/11/14 09:43:41;;;;;;;18.30;9.40;;;;;;;;;;5040688;28;20124;-81
2022/11/14 09:46:36;;;;;;;22.90;10.48;;;;;;;;;;5037632;28;20052;-80
2022/11/14 09:49:02;;;;;;;16.15;8.32;;;;;;;;;;5017263;28;20051;-80
2022/11/14 09:51:34;;;;;;;17.90;10.05;;;;;;;;;;5015815;28;20045;-80
2022/11/14 09:54:19;;;;;;;17.35;9.95;;;;;;;;;;5017147;28;20619;-81
2022/11/14 09:56:44;;;;;;;18.08;8.93;;;;;;;;;;5000293;28;20052;-80
2022/11/14 09:59:11;;;;;;;17.02;9.77;;;;;;;;;;5020428;28;20034;-81
2022/11/14 10:01:42;;;;;;;18.50;9.73;;;;;;;;;;5018504;28;20502;-78
2022/11/14 10:04:26;;;;;;;17.05;9.48;;;;;;;;;;5014048;28;20091;-79
2022/11/14 10:07:09;;;;;;;18.30;9.48;;;;;;;;;;5016934;28;20026;-80
2022/11/14 10:10:00;;;;;;;17.92;10.02;;;;;;;;;;5001441;28;20037;-80
2022/11/14 10:12:43;;;;;;;18.33;8.88;;;;;;;;;;5019795;28;20038;-80
2022/11/14 10:15:26;;;;;;;19.92;10.45;;;;;;;;;;5020459;28;20025;-79
2022/11/14 10:18:22;;;;;;;19.45;9.90;;;;;;;;;;5020092;28;20038;-79
2022/11/14 10:21:00;;;;;;;16.13;9.60;;;;;;;;;;5020699;28;20026;-79
2022/11/14 10:23:57;;;;;;;20.80;10.55;;;;;;;;;;5014944;28;20030;-80
2022/11/14 10:26:29;;;;;;;17.65;10.15;;;;;;;;;;5017533;28;20030;-79
2022/11/14 10:29:16;;;;;;;17.38;9.15;;;;;;;;;;5000974;28;20026;-79
2022/11/14 10:32:00;;;;;;;18.63;10.00;;;;;;;;;;4997370;28;20290;-80
2022/11/14 10:34:29;;;;;;;;;;;;;;;;;;4978792;28;20037;-80
2022/11/14 10:37:15;;;;;;;11.25;6.72;;;;;;;;;;4997035;28;19929;-80
2022/11/14 10:39:45;;;;;;;11.10;6.00;;;;;;;;;;4996543;28;20461;-78
2022/11/14 10:42:34;;;;;;;16.15;8.40;;;;;;;;;;4995723;28;20037;-79
2022/11/14 10:45:17;;;;;;;18.02;8.85;;;;;;;;;;4989772;28;20052;-79
2022/11/14 10:47:52;;;;;;;17.52;9.73;;;;;;;;;;5037853;28;20021;-79
2022/11/14 10:50:25;;;;;;;17.63;10.15;;;;;;;;;;5037460;28;20036;-80
2022/11/14 10:52:58;;;;;;;20.10;9.90;;;;;;;;;;5037292;28;20030;-79
2022/11/14 10:55:23;;;;;;;11.95;6.47;;;;;;;;;;5035851;28;20486;-80
2022/11/14 10:57:49;;;;;;;13.70;8.18;;;;;;;;;;5034269;28;20037;-79
2022/11/14 11:00:17;;;;;;;15.57;8.77;;;;;;;;;;5020754;28;20045;-79
2022/11/14 11:02:47;;;;;;;16.75;9.27;;;;;;;;;;5016349;28;20034;-81
2022/11/14 11:05:17;;;;;;;14.05;8.18;;;;;;;;;;4998361;28;20088;-79
2022/11/14 11:13:30;;;;;;;17.50;9.55;;;;;;;;;;5015486;28;20044;-78
2022/11/14 11:15:58;;;;;;;16.83;8.85;;;;;;;;;;5035353;28;20053;-79
2022/11/14 11:18:34;;;;;;;17.27;9.32;;;;;;;;;;5036337;28;20025;-79
2022/11/14 11:21:01;;;;;;;17.67;9.57;;;;;;;;;;5035756;28;20025;-81
2022/11/14 11:23:27;;;;;;;15.40;8.75;;;;;;;;;;5017466;28;20112;-80
2022/11/14 11:26:04;;;;;;;16.85;8.70;;;;;;;;;;5034912;28;20064;-80
2022/11/14 11:28:33;;;;;;;12.10;6.43;;;;;;;;;;5030693;28;20159;-83
2022/11/14 11:31:00;;;;;;;14.32;8.57;;;;;;;;;;5016799;28;20025;-81
2022/11/14 11:33:31;;;;;;;17.85;8.50;;;;;;;;;;5002081;28;20029;-79
2022/11/14 11:36:02;;;;;;;13.82;7.47;;;;;;;;;;5016121;28;20037;-79
2022/11/14 11:38:30;;;;;;;17.55;9.10;;;;;;;;;;5021225;28;20038;-81
2022/11/14 11:41:04;;;;;;;15.63;8.70;;;;;;;;;;5022073;28;20037;-78
2022/11/14 11:43:37;;;;;;;17.35;8.93;;;;;;;;;;5020121;28;20028;-81
2022/11/14 11:46:10;;;;;;;15.35;9.07;;;;;;;;;;5021517;28;20105;-81
2022/11/14 11:48:39;;;;;;;11.00;7.32;;;;;;;;;;5018361;28;20036;-79
2022/11/14 11:51:12;;;;;;;15.27;9.30;;;;;;;;;;5019322;28;20048;-79
2022/11/14 11:53:45;;;;;;;18.48;9.25;;;;;;;;;;5002376;28;20080;-79
2022/11/14 11:56:13;;;;;;;16.30;8.88;;;;;;;;;;5017475;28;20026;-81
2022/11/14 11:58:47;;;;;;;18.30;9.18;;;;;;;;;;5006146;28;20078;-80
2022/11/14 12:01:13;;;;;;;17.70;9.27;;;;;;;;;;5040096;28;20047;-78
2022/11/14 12:03:48;;;;;;;16.55;8.82;;;;;;;;;;5040696;28;20025;-80
2022/11/14 12:06:28;;;;;;;15.18;8.80;;;;;;;;;;5037734;28;20041;-79
2022/11/14 12:09:15;;;;;;;16.70;9.40;;;;;;;;;;5039790;28;20035;-81
2022/11/14 12:11:51;;;;;;;16.88;9.38;;;;;;;;;;5037658;28;20014;-80
2022/11/14 12:14:37;;;;;;;16.70;9.15;;;;;;;;;;5040346;28;20033;-79
2022/11/14 12:17:23;;;;;;;18.98;8.95;;;;;;;;;;5038124;28;20497;-79
2022/11/14 12:20:14;;;;;;;17.52;8.52;;;;;;;;;;5041235;28;20025;-78
2022/11/14 12:23:17;;;;;;;14.63;8.38;;;;;;;;;;5040349;28;20489;-82
2022/11/14 12:26:02;;;;;;;14.02;8.30;;;;;;;;;;5023944;28;20025;-80
2022/11/14 12:28:41;;;;;;;13.20;7.88;;;;;;;;;;5044132;28;20029;-81
2022/11/14 12:31:13;;;;;;;15.82;8.65;;;;;;;;;;5046177;28;20502;-81
2022/11/14 12:33:46;;;;;;;15.95;8.88;;;;;;;;;;5044241;28;20048;-82
2022/11/14 12:36:12;;;;;;;15.77;8.60;;;;;;;;;;5028808;28;20026;-82
2022/11/14 12:38:51;;;;;;;16.23;8.93;;;;;;;;;;5044254;28;20030;-80
2022/11/14 12:41:35;;;;;;;18.92;8.98;;;;;;;;;;5026602;28;20033;-78
2022/11/14 12:44:26;;;;;;;15.13;9.25;;;;;;;;;;5045799;28;20029;-80
2022/11/14 12:47:03;;;;;;;14.88;7.55;;;;;;;;;;5042349;28;20021;-81
2022/11/14 12:49:57;;;;;;;16.23;9.00;;;;;;;;;;5023830;28;20486;-81
2022/11/14 12:52:42;;;;;;;16.53;8.87;;;;;;;;;;5042878;28;20030;-79
2022/11/14 12:55:17;;;;;;;14.75;8.88;;;;;;;;;;5046186;28;20474;-81
2022/11/14 12:58:05;;;;;;;19.45;9.70;;;;;;;;;;5038886;28;20076;-80
2022/11/14 13:00:32;;;;;;;15.10;8.27;;;;;;;;;;5026139;28;20021;-80
2022/11/14 13:03:16;;;;;;;16.23;9.18;;;;;;;;;;5009038;28;20037;-79
2022/11/14 13:05:55;;;;;;;15.27;8.40;;;;;;;;;;5005549;28;20034;-79
2022/11/14 13:08:51;;;;;;;14.20;7.57;;;;;;;;;;5025265;28;20049;-80
2022/11/14 13:23:25;;;;;;;14.05;8.38;;;;;;;;;;5025562;28;20403;-80
2022/11/14 13:26:08;;;;;;;14.63;8.20;;;;;;;;;;5025980;28;20037;-81
2022/11/14 13:28:37;;;;;;;19.27;9.30;;;;;;;;;;5025563;28;20025;-79
2022/11/14 13:31:14;;;;;;;16.15;8.55;;;;;;;;;;5013484;28;20025;-81
2022/11/14 13:33:47;;;;;;;13.38;8.57;;;;;;;;;;5044632;28;20036;-81
2022/11/14 13:36:38;;;;;;;15.13;8.85;;;;;;;;;;5026279;28;20021;-80
2022/11/14 13:39:34;;;;;;;17.23;8.85;;;;;;;;;;5041928;28;20029;-80
2022/11/14 13:42:21;;;;;;;15.30;9.00;;;;;;;;;;5044697;28;20036;-78
2022/11/14 13:45:15;;;;;;;13.48;7.80;;;;;;;;;;5041113;28;20052;-80
2022/11/14 13:48:08;;;;;;;16.27;8.77;;;;;;;;;;4983128;28;20069;-79
2022/11/14 13:50:35;;;;;;;14.60;7.22;;;;;;;;;;5005195;28;20022;-80
2022/11/14 13:53:02;;;;;;;16.90;9.55;;;;;;;;;;5026081;28;20398;-80
2022/11/14 13:55:43;;;;;;;16.83;9.55;;;;;;;;;;5024348;28;20028;-79
2022/11/14 13:58:24;;;;;;;17.70;9.23;;;;;;;;;;5005191;28;20030;-80
2022/11/14 14:01:07;;;;;;;20.25;9.98;;;;;;;;;;5033931;28;20452;-80
2022/11/14 14:04:10;;;;;;;16.80;10.13;;;;;;;;;;5040716;28;20443;-80
2022/11/14 14:07:07;;;;;;;18.52;9.10;;;;;;;;;;5011280;28;20034;-79
2022/11/14 14:09:57;;;;;;;15.07;8.80;;;;;;;;;;5042485;28;20029;-80
2022/11/14 14:12:52;;;;;;;13.70;9.20;;;;;;;;;;5044172;28;20076;-81
2022/11/14 14:15:42;;;;;;;16.13;9.52;;;;;;;;;;5040730;28;20424;-80
2022/11/14 14:18:08;;;;;;;15.98;9.48;;;;;;;;;;5023048;28;20072;-80
2022/11/14 14:20:53;;;;;;;20.02;10.55;;;;;;;;;;5006266;28;20021;-81
2022/11/14 14:23:31;;;;;;;14.32;8.45;;;;;;;;;;5025930;28;20110;-80
2022/11/14 14:26:27;;;;;;;18.40;10.05;;;;;;;;;;5023610;28;20079;-81
2022/11/14 14:29:23;;;;;;;17.65;9.88;;;;;;;;;;5022425;28;20038;-79
2022/11/14 14:31:49;;;;;;;17.08;9.48;;;;;;;;;;4994454;28;20042;-80
2022/11/14 14:34:30;;;;;;;19.15;10.07;;;;;;;;;;5007325;28;20044;-81
2022/11/14 14:36:56;;;;;;;17.25;10.00;;;;;;;;;;5026388;28;20037;-81
2022/11/14 14:39:26;;;;;;;16.65;10.00;;;;;;;;;;5025438;28;20481;-81
2022/11/14 14:41:53;;;;;;;21.55;10.15;;;;;;;;;;5025272;28;20034;-81
2022/11/14 14:44:22;;;;;;;22.05;10.50;;;;;;;;;;5006771;28;20025;-81
2022/11/14 14:46:47;;;;;;;18.55;10.43;;;;;;;;;;5026228;28;20025;-80
2022/11/14 14:49:20;;;;;;;18.02;10.30;;;;;;;;;;5042888;28;20024;-80
2022/11/14 14:51:45;;;;;;;20.85;10.93;;;;;;;;;;5026580;28;20055;-80
2022/11/14 14:54:25;;;;;;;21.98;11.60;;;;;;;;;;5046063;28;20021;-81
2022/11/14 14:56:58;;;;;;;18.60;11.07;;;;;;;;;;5044162;28;20027;-82
2022/11/14 14:59:26;;;;;;;19.60;11.73;;;;;;;;;;5042984;28;20040;-79
2022/11/14 15:01:52;;;;;;;18.45;10.63;;;;;;;;;;5002540;28;20033;-80